sensor_id;sensor_type;location;lat;lon;timestamp;P1;durP1;ratioP1;P2;durP2;ratioP2
69979;SDS011;57318;56.232;43.944;2024-01-30T00:00:31;18.88;;;7.18;;
69979;SDS011;57318;56.232;43.944;2024-01-30T00:02:57;15.83;;;5.63;;
69979;SDS011;57318;56.232;43.944;2024-01-30T00:05:23;15.30;;;6.10;;
69979;SDS011;57318;56.232;43.944;2024-01-30T00:07:48;16.67;;;6.87;;
69979;SDS011;57318;56.232;43.944;2024-01-30T00:10:14;17.17;;;6.90;;
69979;SDS011;57318;56.232;43.944;2024-01-30T00:12:40;13.00;;;5.78;;
69979;SDS011;57318;56.232;43.944;2024-01-30T00:15:05;15.13;;;6.53;;
69979;SDS011;57318;56.232;43.944;2024-01-30T00:17:35;17.25;;;7.38;;
69979;SDS011;57318;56.232;43.944;2024-01-30T00:20:02;14.25;;;5.88;;
69979;SDS011;57318;56.232;43.944;2024-01-30T00:22:31;17.23;;;7.53;;
69979;SDS011;57318;56.232;43.944;2024-01-30T00:24:57;15.18;;;6.45;;
69979;SDS011;57318;56.232;43.944;2024-01-30T00:27:23;15.43;;;6.28;;
69979;SDS011;57318;56.232;43.944;2024-01-30T00:29:49;19.97;;;7.63;;
69979;SDS011;57318;56.232;43.944;2024-01-30T00:32:14;16.97;;;7.17;;
69979;SDS011;57318;56.232;43.944;2024-01-30T00:34:41;13.53;;;5.87;;
69979;SDS011;57318;56.232;43.944;2024-01-30T00:37:07;14.13;;;6.65;;
69979;SDS011;57318;56.232;43.944;2024-01-30T00:39:33;15.10;;;6.45;;
69979;SDS011;57318;56.232;43.944;2024-01-30T00:41:59;13.43;;;5.20;;
69979;SDS011;57318;56.232;43.944;2024-01-30T00:44:24;16.53;;;6.10;;
69979;SDS011;57318;56.232;43.944;2024-01-30T00:46:50;14.13;;;5.43;;
69979;SDS011;57318;56.232;43.944;2024-01-30T00:49:16;19.63;;;8.00;;
69979;SDS011;57318;56.232;43.944;2024-01-30T00:51:41;15.87;;;5.87;;
69979;SDS011;57318;56.232;43.944;2024-01-30T00:54:07;21.23;;;5.70;;
69979;SDS011;57318;56.232;43.944;2024-01-30T00:56:33;15.80;;;5.80;;
69979;SDS011;57318;56.232;43.944;2024-01-30T00:58:59;12.20;;;4.85;;
69979;SDS011;57318;56.232;43.944;2024-01-30T01:01:26;15.43;;;5.80;;
69979;SDS011;57318;56.232;43.944;2024-01-30T01:03:51;19.93;;;8.57;;
69979;SDS011;57318;56.232;43.944;2024-01-30T01:06:17;16.33;;;5.73;;
69979;SDS011;57318;56.232;43.944;2024-01-30T01:08:43;14.80;;;5.97;;
69979;SDS011;57318;56.232;43.944;2024-01-30T01:11:08;12.30;;;5.63;;
69979;SDS011;57318;56.232;43.944;2024-01-30T01:13:34;12.85;;;5.75;;
69979;SDS011;57318;56.232;43.944;2024-01-30T01:16:00;13.70;;;5.13;;
69979;SDS011;57318;56.232;43.944;2024-01-30T01:18:26;18.17;;;5.87;;
69979;SDS011;57318;56.232;43.944;2024-01-30T01:20:52;14.75;;;6.18;;
69979;SDS011;57318;56.232;43.944;2024-01-30T01:23:18;13.87;;;5.43;;
69979;SDS011;57318;56.232;43.944;2024-01-30T01:25:44;11.23;;;5.63;;
69979;SDS011;57318;56.232;43.944;2024-01-30T01:28:09;16.00;;;6.90;;
69979;SDS011;57318;56.232;43.944;2024-01-30T01:30:35;18.00;;;6.03;;
69979;SDS011;57318;56.232;43.944;2024-01-30T01:33:01;18.93;;;6.30;;
69979;SDS011;57318;56.232;43.944;2024-01-30T01:35:27;12.30;;;4.95;;
69979;SDS011;57318;56.232;43.944;2024-01-30T01:37:54;16.63;;;7.00;;
69979;SDS011;57318;56.232;43.944;2024-01-30T01:40:22;16.73;;;6.63;;
69979;SDS011;57318;56.232;43.944;2024-01-30T01:42:49;12.95;;;5.95;;
69979;SDS011;57318;56.232;43.944;2024-01-30T01:45:16;15.43;;;6.20;;
69979;SDS011;57318;56.232;43.944;2024-01-30T01:47:42;14.53;;;6.10;;
69979;SDS011;57318;56.232;43.944;2024-01-30T01:50:11;12.00;;;5.13;;
69979;SDS011;57318;56.232;43.944;2024-01-30T01:52:38;16.27;;;6.45;;
69979;SDS011;57318;56.232;43.944;2024-01-30T01:55:06;15.95;;;6.88;;
69979;SDS011;57318;56.232;43.944;2024-01-30T01:57:33;13.18;;;5.68;;
69979;SDS011;57318;56.232;43.944;2024-01-30T01:59:59;11.45;;;5.10;;
69979;SDS011;57318;56.232;43.944;2024-01-30T02:02:30;16.45;;;6.85;;
69979;SDS011;57318;56.232;43.944;2024-01-30T02:05:00;18.20;;;7.25;;
69979;SDS011;57318;56.232;43.944;2024-01-30T02:07:26;14.48;;;5.60;;
69979;SDS011;57318;56.232;43.944;2024-01-30T02:09:53;13.02;;;5.70;;
69979;SDS011;57318;56.232;43.944;2024-01-30T02:12:20;15.70;;;5.88;;
69979;SDS011;57318;56.232;43.944;2024-01-30T02:14:46;13.80;;;6.30;;
69979;SDS011;57318;56.232;43.944;2024-01-30T02:17:13;13.98;;;5.63;;
69979;SDS011;57318;56.232;43.944;2024-01-30T02:19:39;15.63;;;6.38;;
69979;SDS011;57318;56.232;43.944;2024-01-30T02:22:05;14.02;;;6.10;;
69979;SDS011;57318;56.232;43.944;2024-01-30T02:26:57;13.02;;;4.50;;
69979;SDS011;57318;56.232;43.944;2024-01-30T02:29:23;19.53;;;7.10;;
69979;SDS011;57318;56.232;43.944;2024-01-30T02:31:48;12.67;;;4.70;;
69979;SDS011;57318;56.232;43.944;2024-01-30T02:34:14;16.10;;;5.47;;
69979;SDS011;57318;56.232;43.944;2024-01-30T02:36:43;11.27;;;5.30;;
69979;SDS011;57318;56.232;43.944;2024-01-30T02:43:15;18.85;;;6.40;;
69979;SDS011;57318;56.232;43.944;2024-01-30T02:45:42;17.10;;;5.57;;
69979;SDS011;57318;56.232;43.944;2024-01-30T02:48:08;14.68;;;7.00;;
69979;SDS011;57318;56.232;43.944;2024-01-30T02:50:34;12.70;;;5.70;;
69979;SDS011;57318;56.232;43.944;2024-01-30T02:53:00;20.67;;;7.60;;
69979;SDS011;57318;56.232;43.944;2024-01-30T02:55:26;16.83;;;6.50;;
69979;SDS011;57318;56.232;43.944;2024-01-30T02:57:52;13.87;;;6.43;;
69979;SDS011;57318;56.232;43.944;2024-01-30T03:00:18;12.48;;;5.78;;
69979;SDS011;57318;56.232;43.944;2024-01-30T03:02:45;16.17;;;6.28;;
69979;SDS011;57318;56.232;43.944;2024-01-30T03:05:10;10.87;;;4.87;;
69979;SDS011;57318;56.232;43.944;2024-01-30T03:07:36;22.43;;;6.93;;
69979;SDS011;57318;56.232;43.944;2024-01-30T03:10:01;15.30;;;7.07;;
69979;SDS011;57318;56.232;43.944;2024-01-30T03:12:29;14.18;;;6.53;;
69979;SDS011;57318;56.232;43.944;2024-01-30T03:14:54;15.50;;;7.33;;
69979;SDS011;57318;56.232;43.944;2024-01-30T03:17:20;14.13;;;6.33;;
69979;SDS011;57318;56.232;43.944;2024-01-30T03:19:46;12.40;;;6.37;;
69979;SDS011;57318;56.232;43.944;2024-01-30T03:22:11;17.57;;;7.63;;
69979;SDS011;57318;56.232;43.944;2024-01-30T03:24:37;15.70;;;6.68;;
69979;SDS011;57318;56.232;43.944;2024-01-30T03:27:03;20.33;;;9.60;;
69979;SDS011;57318;56.232;43.944;2024-01-30T03:29:29;19.07;;;7.83;;
69979;SDS011;57318;56.232;43.944;2024-01-30T03:31:54;16.00;;;6.70;;
69979;SDS011;57318;56.232;43.944;2024-01-30T03:34:20;14.97;;;6.93;;
69979;SDS011;57318;56.232;43.944;2024-01-30T03:36:46;10.77;;;4.83;;
69979;SDS011;57318;56.232;43.944;2024-01-30T03:39:11;22.40;;;8.27;;
69979;SDS011;57318;56.232;43.944;2024-01-30T03:41:37;15.77;;;7.10;;
69979;SDS011;57318;56.232;43.944;2024-01-30T03:44:03;20.60;;;8.27;;
69979;SDS011;57318;56.232;43.944;2024-01-30T03:46:29;15.27;;;6.10;;
69979;SDS011;57318;56.232;43.944;2024-01-30T03:48:54;13.23;;;5.93;;
69979;SDS011;57318;56.232;43.944;2024-01-30T03:51:20;12.87;;;5.83;;
69979;SDS011;57318;56.232;43.944;2024-01-30T03:53:46;16.13;;;7.13;;
69979;SDS011;57318;56.232;43.944;2024-01-30T03:56:11;21.23;;;9.33;;
69979;SDS011;57318;56.232;43.944;2024-01-30T03:58:38;16.70;;;7.40;;
69979;SDS011;57318;56.232;43.944;2024-01-30T04:01:04;21.17;;;6.60;;
69979;SDS011;57318;56.232;43.944;2024-01-30T04:03:30;15.90;;;6.60;;
69979;SDS011;57318;56.232;43.944;2024-01-30T04:05:56;18.10;;;6.57;;
69979;SDS011;57318;56.232;43.944;2024-01-30T04:08:21;13.50;;;6.67;;
69979;SDS011;57318;56.232;43.944;2024-01-30T04:10:47;17.63;;;7.70;;
69979;SDS011;57318;56.232;43.944;2024-01-30T04:13:13;22.27;;;7.90;;
69979;SDS011;57318;56.232;43.944;2024-01-30T04:15:39;17.53;;;8.17;;
69979;SDS011;57318;56.232;43.944;2024-01-30T04:18:05;19.30;;;7.45;;
69979;SDS011;57318;56.232;43.944;2024-01-30T04:20:31;19.30;;;7.03;;
69979;SDS011;57318;56.232;43.944;2024-01-30T04:22:57;21.53;;;7.67;;
69979;SDS011;57318;56.232;43.944;2024-01-30T04:25:23;10.85;;;4.50;;
69979;SDS011;57318;56.232;43.944;2024-01-30T04:27:48;21.10;;;7.53;;
69979;SDS011;57318;56.232;43.944;2024-01-30T04:30:14;17.67;;;7.07;;
69979;SDS011;57318;56.232;43.944;2024-01-30T04:32:40;21.13;;;8.30;;
69979;SDS011;57318;56.232;43.944;2024-01-30T04:35:09;21.48;;;8.05;;
69979;SDS011;57318;56.232;43.944;2024-01-30T04:37:34;20.77;;;7.07;;
69979;SDS011;57318;56.232;43.944;2024-01-30T04:40:00;18.10;;;7.03;;
69979;SDS011;57318;56.232;43.944;2024-01-30T04:42:29;19.08;;;7.78;;
69979;SDS011;57318;56.232;43.944;2024-01-30T04:44:54;22.43;;;9.33;;
69979;SDS011;57318;56.232;43.944;2024-01-30T04:47:20;15.57;;;6.93;;
69979;SDS011;57318;56.232;43.944;2024-01-30T04:49:46;17.27;;;7.00;;
69979;SDS011;57318;56.232;43.944;2024-01-30T04:52:11;19.27;;;7.57;;
69979;SDS011;57318;56.232;43.944;2024-01-30T04:54:37;22.37;;;7.80;;
69979;SDS011;57318;56.232;43.944;2024-01-30T04:57:03;17.67;;;7.17;;
69979;SDS011;57318;56.232;43.944;2024-01-30T04:59:30;12.07;;;5.97;;
69979;SDS011;57318;56.232;43.944;2024-01-30T05:01:56;15.20;;;6.73;;
69979;SDS011;57318;56.232;43.944;2024-01-30T05:04:22;19.23;;;6.37;;
69979;SDS011;57318;56.232;43.944;2024-01-30T05:06:48;15.30;;;7.17;;
69979;SDS011;57318;56.232;43.944;2024-01-30T05:09:13;16.40;;;7.87;;
69979;SDS011;57318;56.232;43.944;2024-01-30T05:11:39;23.87;;;8.83;;
69979;SDS011;57318;56.232;43.944;2024-01-30T05:14:06;15.60;;;7.02;;
69979;SDS011;57318;56.232;43.944;2024-01-30T05:16:32;23.67;;;9.52;;
69979;SDS011;57318;56.232;43.944;2024-01-30T05:18:59;21.80;;;8.40;;
69979;SDS011;57318;56.232;43.944;2024-01-30T05:21:24;19.83;;;8.10;;
69979;SDS011;57318;56.232;43.944;2024-01-30T05:23:50;22.57;;;9.57;;
69979;SDS011;57318;56.232;43.944;2024-01-30T05:26:16;22.83;;;8.63;;
69979;SDS011;57318;56.232;43.944;2024-01-30T05:28:42;23.05;;;8.27;;
69979;SDS011;57318;56.232;43.944;2024-01-30T05:31:09;23.48;;;9.43;;
69979;SDS011;57318;56.232;43.944;2024-01-30T05:33:36;21.90;;;8.45;;
69979;SDS011;57318;56.232;43.944;2024-01-30T05:36:02;21.35;;;8.23;;
69979;SDS011;57318;56.232;43.944;2024-01-30T05:38:28;29.25;;;10.38;;
69979;SDS011;57318;56.232;43.944;2024-01-30T05:40:54;18.50;;;8.00;;
69979;SDS011;57318;56.232;43.944;2024-01-30T05:43:20;21.10;;;8.40;;
69979;SDS011;57318;56.232;43.944;2024-01-30T05:45:46;24.87;;;8.13;;
69979;SDS011;57318;56.232;43.944;2024-01-30T05:48:11;16.17;;;7.20;;
69979;SDS011;57318;56.232;43.944;2024-01-30T05:50:37;18.27;;;7.47;;
69979;SDS011;57318;56.232;43.944;2024-01-30T05:53:03;20.00;;;7.80;;
69979;SDS011;57318;56.232;43.944;2024-01-30T05:55:29;14.90;;;6.65;;
69979;SDS011;57318;56.232;43.944;2024-01-30T05:57:54;24.80;;;8.77;;
69979;SDS011;57318;56.232;43.944;2024-01-30T06:00:20;19.52;;;7.07;;
69979;SDS011;57318;56.232;43.944;2024-01-30T06:02:46;21.77;;;8.57;;
69979;SDS011;57318;56.232;43.944;2024-01-30T06:05:12;19.87;;;7.77;;
69979;SDS011;57318;56.232;43.944;2024-01-30T06:07:38;17.83;;;7.30;;
69979;SDS011;57318;56.232;43.944;2024-01-30T06:10:03;19.97;;;7.50;;
69979;SDS011;57318;56.232;43.944;2024-01-30T06:12:30;16.20;;;6.57;;
69979;SDS011;57318;56.232;43.944;2024-01-30T06:14:55;14.77;;;6.27;;
69979;SDS011;57318;56.232;43.944;2024-01-30T06:17:22;22.42;;;7.85;;
69979;SDS011;57318;56.232;43.944;2024-01-30T06:19:49;18.10;;;6.93;;
69979;SDS011;57318;56.232;43.944;2024-01-30T06:22:15;22.77;;;7.23;;
69979;SDS011;57318;56.232;43.944;2024-01-30T06:24:41;15.57;;;6.55;;
69979;SDS011;57318;56.232;43.944;2024-01-30T06:27:07;18.97;;;7.43;;
69979;SDS011;57318;56.232;43.944;2024-01-30T06:29:32;15.77;;;7.27;;
69979;SDS011;57318;56.232;43.944;2024-01-30T06:31:59;17.53;;;7.60;;
69979;SDS011;57318;56.232;43.944;2024-01-30T06:34:24;23.23;;;7.18;;
69979;SDS011;57318;56.232;43.944;2024-01-30T06:39:17;15.48;;;6.55;;
69979;SDS011;57318;56.232;43.944;2024-01-30T06:41:42;15.52;;;6.28;;
69979;SDS011;57318;56.232;43.944;2024-01-30T06:44:08;15.07;;;6.18;;
69979;SDS011;57318;56.232;43.944;2024-01-30T06:46:34;16.53;;;7.40;;
69979;SDS011;57318;56.232;43.944;2024-01-30T06:49:00;13.57;;;6.95;;
69979;SDS011;57318;56.232;43.944;2024-01-30T06:51:26;15.83;;;7.20;;
69979;SDS011;57318;56.232;43.944;2024-01-30T06:53:52;23.40;;;8.73;;
69979;SDS011;57318;56.232;43.944;2024-01-30T06:56:18;15.77;;;7.37;;
69979;SDS011;57318;56.232;43.944;2024-01-30T06:58:49;23.00;;;7.38;;
69979;SDS011;57318;56.232;43.944;2024-01-30T07:01:15;22.05;;;7.25;;
69979;SDS011;57318;56.232;43.944;2024-01-30T07:03:42;19.02;;;6.15;;
69979;SDS011;57318;56.232;43.944;2024-01-30T07:08:36;15.97;;;6.17;;
69979;SDS011;57318;56.232;43.944;2024-01-30T07:11:05;17.27;;;6.80;;
69979;SDS011;57318;56.232;43.944;2024-01-30T07:13:31;12.98;;;6.28;;
69979;SDS011;57318;56.232;43.944;2024-01-30T07:15:57;18.40;;;6.40;;
69979;SDS011;57318;56.232;43.944;2024-01-30T07:18:23;13.48;;;6.28;;
69979;SDS011;57318;56.232;43.944;2024-01-30T07:20:49;15.10;;;6.05;;
69979;SDS011;57318;56.232;43.944;2024-01-30T07:23:16;17.77;;;6.95;;
69979;SDS011;57318;56.232;43.944;2024-01-30T07:25:43;15.27;;;5.75;;
69979;SDS011;57318;56.232;43.944;2024-01-30T07:28:10;12.55;;;5.13;;
69979;SDS011;57318;56.232;43.944;2024-01-30T07:30:37;15.85;;;7.05;;
69979;SDS011;57318;56.232;43.944;2024-01-30T07:33:04;13.73;;;5.68;;
69979;SDS011;57318;56.232;43.944;2024-01-30T07:35:29;17.27;;;7.43;;
69979;SDS011;57318;56.232;43.944;2024-01-30T07:37:55;14.33;;;6.47;;
69979;SDS011;57318;56.232;43.944;2024-01-30T07:40:23;11.68;;;4.63;;
69979;SDS011;57318;56.232;43.944;2024-01-30T07:42:49;15.43;;;5.88;;
69979;SDS011;57318;56.232;43.944;2024-01-30T07:45:15;16.40;;;5.70;;
69979;SDS011;57318;56.232;43.944;2024-01-30T07:47:41;13.35;;;5.47;;
69979;SDS011;57318;56.232;43.944;2024-01-30T07:50:07;15.85;;;6.15;;
69979;SDS011;57318;56.232;43.944;2024-01-30T07:52:34;15.23;;;6.47;;
69979;SDS011;57318;56.232;43.944;2024-01-30T07:55:00;15.13;;;6.80;;
69979;SDS011;57318;56.232;43.944;2024-01-30T07:57:28;14.30;;;7.20;;
69979;SDS011;57318;56.232;43.944;2024-01-30T07:59:54;21.23;;;7.80;;
69979;SDS011;57318;56.232;43.944;2024-01-30T08:02:20;15.33;;;8.00;;
69979;SDS011;57318;56.232;43.944;2024-01-30T08:04:46;15.90;;;5.85;;
69979;SDS011;57318;56.232;43.944;2024-01-30T08:07:14;18.05;;;7.32;;
69979;SDS011;57318;56.232;43.944;2024-01-30T08:09:39;18.70;;;8.85;;
69979;SDS011;57318;56.232;43.944;2024-01-30T08:12:05;20.13;;;7.83;;
69979;SDS011;57318;56.232;43.944;2024-01-30T08:14:31;23.33;;;9.60;;
69979;SDS011;57318;56.232;43.944;2024-01-30T08:16:57;19.67;;;8.87;;
69979;SDS011;57318;56.232;43.944;2024-01-30T08:19:23;18.67;;;8.60;;
69979;SDS011;57318;56.232;43.944;2024-01-30T08:21:48;17.30;;;7.57;;
69979;SDS011;57318;56.232;43.944;2024-01-30T08:24:14;14.43;;;7.57;;
69979;SDS011;57318;56.232;43.944;2024-01-30T08:26:40;20.40;;;7.70;;
69979;SDS011;57318;56.232;43.944;2024-01-30T08:29:05;10.00;;;5.07;;
69979;SDS011;57318;56.232;43.944;2024-01-30T08:31:31;15.50;;;5.80;;
69979;SDS011;57318;56.232;43.944;2024-01-30T08:33:57;12.40;;;6.07;;
69979;SDS011;57318;56.232;43.944;2024-01-30T08:36:23;8.40;;;4.38;;
69979;SDS011;57318;56.232;43.944;2024-01-30T08:38:49;13.52;;;5.65;;
69979;SDS011;57318;56.232;43.944;2024-01-30T08:41:14;17.63;;;6.17;;
69979;SDS011;57318;56.232;43.944;2024-01-30T08:43:40;14.00;;;6.23;;
69979;SDS011;57318;56.232;43.944;2024-01-30T08:46:06;12.07;;;5.67;;
69979;SDS011;57318;56.232;43.944;2024-01-30T08:48:32;19.33;;;6.70;;
69979;SDS011;57318;56.232;43.944;2024-01-30T08:50:58;17.83;;;6.57;;
69979;SDS011;57318;56.232;43.944;2024-01-30T08:53:23;17.17;;;8.43;;
69979;SDS011;57318;56.232;43.944;2024-01-30T08:55:49;21.75;;;7.25;;
69979;SDS011;57318;56.232;43.944;2024-01-30T08:58:15;23.97;;;8.17;;
69979;SDS011;57318;56.232;43.944;2024-01-30T09:00:43;15.85;;;7.20;;
69979;SDS011;57318;56.232;43.944;2024-01-30T09:03:09;15.57;;;7.83;;
69979;SDS011;57318;56.232;43.944;2024-01-30T09:05:34;25.30;;;10.77;;
69979;SDS011;57318;56.232;43.944;2024-01-30T09:08:00;23.70;;;10.17;;
69979;SDS011;57318;56.232;43.944;2024-01-30T09:10:26;35.07;;;14.67;;
69979;SDS011;57318;56.232;43.944;2024-01-30T09:12:52;33.33;;;13.63;;
69979;SDS011;57318;56.232;43.944;2024-01-30T09:15:17;31.60;;;14.67;;
69979;SDS011;57318;56.232;43.944;2024-01-30T09:17:44;34.67;;;14.43;;
69979;SDS011;57318;56.232;43.944;2024-01-30T09:20:10;35.93;;;12.63;;
69979;SDS011;57318;56.232;43.944;2024-01-30T09:22:37;27.77;;;11.43;;
69979;SDS011;57318;56.232;43.944;2024-01-30T09:25:03;31.05;;;12.23;;
69979;SDS011;57318;56.232;43.944;2024-01-30T09:27:29;26.08;;;11.95;;
69979;SDS011;57318;56.232;43.944;2024-01-30T09:29:56;30.65;;;12.82;;
69979;SDS011;57318;56.232;43.944;2024-01-30T09:32:21;25.50;;;10.90;;
69979;SDS011;57318;56.232;43.944;2024-01-30T09:34:47;22.60;;;10.80;;
69979;SDS011;57318;56.232;43.944;2024-01-30T09:37:13;15.80;;;7.17;;
69979;SDS011;57318;56.232;43.944;2024-01-30T09:39:40;22.27;;;7.53;;
69979;SDS011;57318;56.232;43.944;2024-01-30T09:42:39;24.80;;;10.35;;
69979;SDS011;57318;56.232;43.944;2024-01-30T09:45:02;20.33;;;8.80;;
69979;SDS011;57318;56.232;43.944;2024-01-30T09:47:31;19.48;;;8.43;;
69979;SDS011;57318;56.232;43.944;2024-01-30T09:49:57;18.05;;;7.90;;
69979;SDS011;57318;56.232;43.944;2024-01-30T09:52:24;20.92;;;8.63;;
69979;SDS011;57318;56.232;43.944;2024-01-30T09:54:50;17.10;;;7.93;;
69979;SDS011;57318;56.232;43.944;2024-01-30T09:57:17;14.27;;;6.63;;
69979;SDS011;57318;56.232;43.944;2024-01-30T09:59:43;13.40;;;6.20;;
69979;SDS011;57318;56.232;43.944;2024-01-30T10:02:09;11.82;;;4.97;;
69979;SDS011;57318;56.232;43.944;2024-01-30T10:04:35;14.70;;;6.72;;
69979;SDS011;57318;56.232;43.944;2024-01-30T10:07:04;16.53;;;6.27;;
69979;SDS011;57318;56.232;43.944;2024-01-30T10:09:31;14.25;;;5.93;;
69979;SDS011;57318;56.232;43.944;2024-01-30T10:11:59;14.48;;;5.32;;
69979;SDS011;57318;56.232;43.944;2024-01-30T10:14:24;7.53;;;4.30;;
69979;SDS011;57318;56.232;43.944;2024-01-30T10:16:50;12.65;;;5.63;;
69979;SDS011;57318;56.232;43.944;2024-01-30T10:19:16;15.20;;;4.97;;
69979;SDS011;57318;56.232;43.944;2024-01-30T10:21:42;10.63;;;5.13;;
69979;SDS011;57318;56.232;43.944;2024-01-30T10:24:07;11.00;;;5.60;;
69979;SDS011;57318;56.232;43.944;2024-01-30T10:26:33;13.73;;;5.33;;
69979;SDS011;57318;56.232;43.944;2024-01-30T10:28:59;9.90;;;4.00;;
69979;SDS011;57318;56.232;43.944;2024-01-30T10:31:25;10.23;;;4.17;;
69979;SDS011;57318;56.232;43.944;2024-01-30T10:33:51;9.07;;;4.80;;
69979;SDS011;57318;56.232;43.944;2024-01-30T10:36:17;15.60;;;5.10;;
69979;SDS011;57318;56.232;43.944;2024-01-30T10:38:43;10.02;;;4.82;;
69979;SDS011;57318;56.232;43.944;2024-01-30T10:41:12;12.32;;;4.22;;
69979;SDS011;57318;56.232;43.944;2024-01-30T10:43:41;8.95;;;4.47;;
69979;SDS011;57318;56.232;43.944;2024-01-30T10:46:11;10.85;;;4.57;;
69979;SDS011;57318;56.232;43.944;2024-01-30T10:48:46;15.40;;;5.10;;
69979;SDS011;57318;56.232;43.944;2024-01-30T10:51:16;8.60;;;3.72;;
69979;SDS011;57318;56.232;43.944;2024-01-30T10:53:43;8.73;;;3.58;;
69979;SDS011;57318;56.232;43.944;2024-01-30T10:56:11;9.32;;;3.85;;
69979;SDS011;57318;56.232;43.944;2024-01-30T10:58:39;11.30;;;5.00;;
69979;SDS011;57318;56.232;43.944;2024-01-30T11:01:05;16.43;;;5.27;;
69979;SDS011;57318;56.232;43.944;2024-01-30T11:03:32;9.88;;;3.78;;
69979;SDS011;57318;56.232;43.944;2024-01-30T11:06:01;8.23;;;3.58;;
69979;SDS011;57318;56.232;43.944;2024-01-30T11:08:28;12.52;;;4.18;;
69979;SDS011;57318;56.232;43.944;2024-01-30T11:10:55;10.57;;;3.33;;
69979;SDS011;57318;56.232;43.944;2024-01-30T11:13:26;11.68;;;4.35;;
69979;SDS011;57318;56.232;43.944;2024-01-30T11:15:53;11.65;;;4.30;;
69979;SDS011;57318;56.232;43.944;2024-01-30T11:18:25;14.90;;;4.50;;
69979;SDS011;57318;56.232;43.944;2024-01-30T11:20:51;7.97;;;4.18;;
69979;SDS011;57318;56.232;43.944;2024-01-30T11:23:17;13.43;;;4.93;;
69979;SDS011;57318;56.232;43.944;2024-01-30T11:25:43;11.97;;;4.83;;
69979;SDS011;57318;56.232;43.944;2024-01-30T11:28:13;11.95;;;4.88;;
69979;SDS011;57318;56.232;43.944;2024-01-30T11:30:43;10.45;;;5.05;;
69979;SDS011;57318;56.232;43.944;2024-01-30T11:33:10;11.63;;;5.22;;
69979;SDS011;57318;56.232;43.944;2024-01-30T11:38:04;10.20;;;4.57;;
69979;SDS011;57318;56.232;43.944;2024-01-30T11:40:32;12.05;;;4.82;;
69979;SDS011;57318;56.232;43.944;2024-01-30T11:42:59;8.68;;;4.47;;
69979;SDS011;57318;56.232;43.944;2024-01-30T11:45:26;13.27;;;5.70;;
69979;SDS011;57318;56.232;43.944;2024-01-30T11:47:53;11.32;;;5.18;;
69979;SDS011;57318;56.232;43.944;2024-01-30T11:50:18;14.90;;;5.90;;
69979;SDS011;57318;56.232;43.944;2024-01-30T11:52:44;9.77;;;4.97;;
69979;SDS011;57318;56.232;43.944;2024-01-30T11:55:10;9.97;;;5.43;;
69979;SDS011;57318;56.232;43.944;2024-01-30T11:57:37;10.43;;;4.53;;
69979;SDS011;57318;56.232;43.944;2024-01-30T12:00:04;7.70;;;4.13;;
69979;SDS011;57318;56.232;43.944;2024-01-30T12:02:36;9.68;;;4.65;;
69979;SDS011;57318;56.232;43.944;2024-01-30T12:07:31;11.25;;;3.70;;
69979;SDS011;57318;56.232;43.944;2024-01-30T12:09:57;11.68;;;4.75;;
69979;SDS011;57318;56.232;43.944;2024-01-30T12:12:27;12.23;;;4.85;;
69979;SDS011;57318;56.232;43.944;2024-01-30T12:14:54;13.75;;;5.30;;
69979;SDS011;57318;56.232;43.944;2024-01-30T12:17:31;14.15;;;5.20;;
69979;SDS011;57318;56.232;43.944;2024-01-30T12:20:11;16.70;;;5.60;;
69979;SDS011;57318;56.232;43.944;2024-01-30T12:22:42;12.70;;;5.35;;
69979;SDS011;57318;56.232;43.944;2024-01-30T12:25:18;11.20;;;5.00;;
69979;SDS011;57318;56.232;43.944;2024-01-30T12:27:46;22.88;;;8.20;;
69979;SDS011;57318;56.232;43.944;2024-01-30T12:30:16;20.85;;;8.20;;
69979;SDS011;57318;56.232;43.944;2024-01-30T12:32:44;16.10;;;7.88;;
69979;SDS011;57318;56.232;43.944;2024-01-30T12:35:12;18.60;;;9.02;;
69979;SDS011;57318;56.232;43.944;2024-01-30T12:37:39;19.73;;;11.02;;
69979;SDS011;57318;56.232;43.944;2024-01-30T12:40:09;16.25;;;8.77;;
69979;SDS011;57318;56.232;43.944;2024-01-30T12:42:37;12.73;;;7.75;;
69979;SDS011;57318;56.232;43.944;2024-01-30T12:45:03;12.70;;;6.77;;
69979;SDS011;57318;56.232;43.944;2024-01-30T12:47:32;19.70;;;9.55;;
69979;SDS011;57318;56.232;43.944;2024-01-30T12:49:58;15.87;;;7.77;;
69979;SDS011;57318;56.232;43.944;2024-01-30T12:52:24;12.85;;;6.82;;
69979;SDS011;57318;56.232;43.944;2024-01-30T12:54:50;9.98;;;4.88;;
69979;SDS011;57318;56.232;43.944;2024-01-30T12:57:17;8.90;;;4.57;;
69979;SDS011;57318;56.232;43.944;2024-01-30T12:59:43;16.42;;;5.28;;
69979;SDS011;57318;56.232;43.944;2024-01-30T13:02:10;10.20;;;4.00;;
69979;SDS011;57318;56.232;43.944;2024-01-30T13:04:37;10.25;;;4.60;;
69979;SDS011;57318;56.232;43.944;2024-01-30T13:07:03;11.40;;;4.67;;
69979;SDS011;57318;56.232;43.944;2024-01-30T13:09:32;10.47;;;5.07;;
69979;SDS011;57318;56.232;43.944;2024-01-30T13:11:58;9.43;;;4.22;;
69979;SDS011;57318;56.232;43.944;2024-01-30T13:14:25;9.90;;;5.05;;
69979;SDS011;57318;56.232;43.944;2024-01-30T13:16:51;13.50;;;5.38;;
69979;SDS011;57318;56.232;43.944;2024-01-30T13:19:17;10.57;;;4.23;;
69979;SDS011;57318;56.232;43.944;2024-01-30T13:21:43;12.88;;;4.82;;
69979;SDS011;57318;56.232;43.944;2024-01-30T13:24:09;13.53;;;4.57;;
69979;SDS011;57318;56.232;43.944;2024-01-30T13:26:35;14.90;;;4.93;;
69979;SDS011;57318;56.232;43.944;2024-01-30T13:29:00;12.93;;;4.80;;
69979;SDS011;57318;56.232;43.944;2024-01-30T13:31:26;16.43;;;5.80;;
69979;SDS011;57318;56.232;43.944;2024-01-30T13:33:53;15.27;;;5.75;;
69979;SDS011;57318;56.232;43.944;2024-01-30T13:36:19;13.48;;;5.25;;
69979;SDS011;57318;56.232;43.944;2024-01-30T13:38:46;20.00;;;6.25;;
69979;SDS011;57318;56.232;43.944;2024-01-30T13:41:12;18.27;;;6.03;;
69979;SDS011;57318;56.232;43.944;2024-01-30T13:43:37;14.80;;;6.00;;
69979;SDS011;57318;56.232;43.944;2024-01-30T13:46:03;12.40;;;5.17;;
69979;SDS011;57318;56.232;43.944;2024-01-30T13:48:29;13.77;;;6.05;;
69979;SDS011;57318;56.232;43.944;2024-01-30T13:50:56;11.98;;;5.10;;
69979;SDS011;57318;56.232;43.944;2024-01-30T13:53:22;11.83;;;4.77;;
69979;SDS011;57318;56.232;43.944;2024-01-30T13:58:14;16.48;;;5.03;;
69979;SDS011;57318;56.232;43.944;2024-01-30T14:00:40;13.60;;;5.77;;
69979;SDS011;57318;56.232;43.944;2024-01-30T14:03:06;12.10;;;5.85;;
69979;SDS011;57318;56.232;43.944;2024-01-30T14:05:32;12.52;;;5.43;;
69979;SDS011;57318;56.232;43.944;2024-01-30T14:07:58;16.10;;;6.33;;
69979;SDS011;57318;56.232;43.944;2024-01-30T14:10:25;14.15;;;5.35;;
69979;SDS011;57318;56.232;43.944;2024-01-30T14:12:51;20.23;;;6.93;;
69979;SDS011;57318;56.232;43.944;2024-01-30T14:15:17;15.77;;;6.25;;
69979;SDS011;57318;56.232;43.944;2024-01-30T14:17:44;15.10;;;5.43;;
69979;SDS011;57318;56.232;43.944;2024-01-30T14:20:15;17.70;;;6.07;;
69979;SDS011;57318;56.232;43.944;2024-01-30T14:22:44;12.02;;;4.78;;
69979;SDS011;57318;56.232;43.944;2024-01-30T14:25:09;10.85;;;5.10;;
69979;SDS011;57318;56.232;43.944;2024-01-30T14:27:36;13.85;;;6.07;;
69979;SDS011;57318;56.232;43.944;2024-01-30T14:30:02;17.40;;;5.65;;
69979;SDS011;57318;56.232;43.944;2024-01-30T14:32:31;12.70;;;5.85;;
69979;SDS011;57318;56.232;43.944;2024-01-30T14:34:57;15.23;;;5.90;;